Latest Weather Observations for Woomera

IDS60801

Issued at 2:01 pm CST Monday 31 August 2015 (issued every 30 minutes, with the page automatically refreshed every 10 minutes)

About weather observations | Map of weather stations | Latest weather observations for SA | Other Formats
Station Details ID: 016001 Name: WOOMERA AERODROME Lat: -31.16 Lon: 136.81 Height: 166.6 m
Data from the previous 72 hours. | See also: Recent months at Woomera
Date/Time
CST
Temp
°C
App
Temp
°C
Dew
Point
Rel
Hum
%
Delta-T
°C
Wind Press
QNH
hPa
Press
MSL
hPa
Rain
since 9 am
mm
Dir
 
Spd
km/h
Gust
km/h
Spd
kts
Gust
kts
31/02:00pm 21.4 15.6 -1.5 21 10.0 NNW 19 28 10 15 1018.1 - 0.0
31/01:30pm 21.8 15.3 -2.3 20 10.4 N 22 32 12 17 1018.4 - 0.0
31/01:00pm 21.1 14.6 -2.6 20 10.1 NNW 22 32 12 17 1019.1 - 0.0
31/12:30pm 21.1 14.2 -2.6 20 10.1 N 24 35 13 19 1019.4 - 0.0
31/12:00pm 20.7 14.6 -2.6 20 9.9 N 20 28 11 15 1020.0 1020.0 0.0
31/11:30am 19.5 13.0 -2.7 22 9.3 N 22 32 12 17 1020.3 - 0.0
31/11:00am 18.9 12.4 -2.7 23 9.0 N 22 26 12 14 1020.7 - 0.0
31/10:30am 18.0 11.5 -2.5 24 8.5 N 22 30 12 16 1021.0 - 0.0
31/10:00am 16.8 9.6 -2.1 27 7.8 N 26 32 14 17 1021.2 - 0.0
31/09:30am 15.2 8.1 -1.6 31 6.9 N 26 35 14 19 1021.3 - 0.0
31/09:00am 13.9 7.2 -1.3 35 6.2 N 24 32 13 17 1021.4 1021.4 0.0
31/08:30am 12.6 5.9 -0.9 39 5.5 N 24 30 13 16 1021.2 - 0.0
31/08:00am 10.8 5.2 0.0 47 4.4 NNE 19 22 10 12 1021.0 - 0.0
31/07:30am 9.0 4.3 0.9 57 3.3 NNE 15 17 8 9 1020.7 - 0.0
31/07:00am 7.1 2.8 0.9 65 2.5 NNE 13 15 7 8 1020.4 - 0.0
31/06:30am 6.9 2.2 0.9 65 2.4 NNE 15 17 8 9 1020.2 - 0.0
31/06:00am 7.8 2.7 0.9 61 2.8 NNE 17 19 9 10 1020.1 1020.1 0.0
31/05:30am 8.4 2.9 0.7 58 3.1 NNE 19 20 10 11 1019.9 - 0.0
31/05:00am 8.0 3.0 1.4 63 2.7 ENE 17 20 9 11 1019.7 - 0.0
31/04:30am 7.9 2.5 1.3 63 2.7 ENE 19 19 10 10 1019.7 - 0.0
31/04:00am 7.9 3.3 1.6 64 2.6 ENE 15 17 8 9 1019.5 - 0.0
31/03:30am 8.2 2.8 1.4 62 2.8 ENE 19 20 10 11 1019.8 - 0.0
31/03:00am 8.3 2.9 1.2 61 2.9 ENE 19 20 10 11 1020.3 1020.3 0.0
31/02:30am 7.9 3.2 1.0 61 2.8 ENE 15 17 8 9 1020.5 - 0.0
31/02:00am 8.5 4.2 0.9 59 3.1 E 13 15 7 8 1020.7 - 0.0
31/01:30am 8.5 3.8 0.6 57 3.2 ENE 15 17 8 9 1020.9 - 0.0
31/01:00am 9.0 3.9 0.6 55 3.4 ENE 17 17 9 9 1021.1 - 0.0
31/12:30am 8.6 3.8 0.4 56 3.3 ENE 15 17 8 9 1021.1 - 0.0
31/12:00am 9.1 4.8 0.8 56 3.4 ENE 13 15 7 8 1021.1 1021.1 0.0
 
Date/Time
CST
Temp
°C
App
Temp
°C
Dew
Point
Rel
Hum
%
Delta-T
°C
Wind Press
QNH
hPa
Press
MSL
hPa
Rain
since 9 am
mm
Dir
 
Spd
km/h
Gust
km/h
Spd
kts
Gust
kts
30/11:30pm 10.2 5.9 0.7 51 3.9 E 13 15 7 8 1021.4 - 0.0
30/11:00pm 10.2 5.9 1.0 53 3.8 E 13 15 7 8 1021.8 - 0.0
30/10:30pm 10.4 6.4 0.7 51 4.0 E 11 13 6 7 1022.1 - 0.0
30/10:00pm 11.1 6.7 0.4 47 4.4 E 13 15 7 8 1022.1 - 0.0
30/09:30pm 11.4 7.4 0.2 46 4.6 E 11 13 6 7 1022.2 - 0.0
30/09:00pm 12.0 7.1 -0.2 43 5.0 ENE 15 15 8 8 1022.0 1022.0 0.0
30/08:30pm 12.5 8.0 -0.4 41 5.3 ENE 13 15 7 8 1022.0 - 0.0
30/08:00pm 13.2 8.7 0.0 40 5.5 ENE 13 13 7 7 1021.7 - 0.0
30/07:30pm 13.7 8.4 -0.5 37 5.9 ENE 17 17 9 9 1021.4 - 0.0
30/07:00pm 14.4 9.1 -0.4 36 6.2 E 17 17 9 9 1021.1 - 0.0
30/06:30pm 15.4 11.7 0.2 35 6.5 ENE 9 11 5 6 1021.1 - 0.0
30/06:00pm 17.0 12.3 -2.1 27 7.9 NE 13 19 7 10 1020.9 1020.9 0.0
30/05:30pm 17.8 13.9 -1.7 26 8.2 ENE 9 13 5 7 1020.8 - 0.0
30/05:00pm 18.1 13.8 -1.5 26 8.3 NNE 11 15 6 8 1020.9 - 0.0
30/04:30pm 18.7 14.4 -1.9 24 8.7 NE 11 17 6 9 1021.1 - 0.0
30/04:00pm 18.9 14.2 -1.9 24 8.8 N 13 20 7 11 1021.1 - 0.0
30/03:30pm 18.7 14.0 -1.9 24 8.7 N 13 19 7 10 1021.3 - 0.0
30/03:00pm 18.3 13.3 -1.5 26 8.4 N 15 20 8 11 1021.4 1021.4 0.0
30/02:30pm 18.7 13.2 -1.9 24 8.7 NNE 17 22 9 12 1021.8 - 0.0
30/02:00pm 18.3 12.4 -1.9 25 8.5 N 19 26 10 14 1022.0 - 0.0
30/01:30pm 18.0 12.9 -1.7 26 8.3 N 15 20 8 11 1022.6 - 0.0
30/01:00pm 17.6 12.2 -1.7 27 8.1 N 17 28 9 15 1023.1 - 0.0
30/12:30pm 17.5 12.6 -0.8 29 7.8 N 15 28 8 15 1023.7 - 0.0
30/12:00pm 16.6 10.3 -0.9 30 7.4 N 22 30 12 16 1024.4 1024.4 0.0
30/11:30am 16.6 10.7 -0.6 31 7.3 N 20 28 11 15 1024.9 - 0.0
30/11:00am 16.1 10.4 -0.4 32 7.0 NNE 19 24 10 13 1025.2 - 0.0
30/10:30am 15.0 9.8 -0.1 35 6.4 NNE 17 22 9 12 1025.4 - 0.0
30/10:00am 14.4 9.6 0.2 38 6.0 ENE 15 20 8 11 1025.6 - 0.0
30/09:30am 13.4 9.2 1.6 44 5.1 E 13 19 7 10 1025.8 - 0.0
30/09:00am 11.7 6.9 2.8 54 3.9 E 17 20 9 11 1025.4 1025.4 0.0
30/08:30am 10.2 6.3 3.3 62 3.0 E 13 17 7 9 1025.2 - 0.0
30/08:00am 8.9 4.2 3.3 68 2.4 ESE 17 20 9 11 1024.9 - 0.0
30/07:30am 7.7 3.0 3.0 72 2.0 E 17 19 9 10 1024.6 - 0.0
30/07:00am 6.6 1.9 3.0 78 1.5 ESE 17 19 9 10 1024.4 - 0.0
30/06:30am 6.2 1.4 2.8 79 1.4 ESE 17 19 9 10 1024.0 - 0.0
30/06:00am 5.7 1.3 2.8 81 1.2 ESE 15 17 8 9 1023.8 1023.9 0.0
30/05:30am 6.1 1.7 2.5 78 1.5 ESE 15 17 8 9 1023.7 - 0.0
30/05:00am 6.4 1.8 1.7 72 1.9 ESE 15 17 8 9 1023.6 - 0.0
30/04:30am 6.5 2.3 1.6 71 2.0 ESE 13 15 7 8 1023.7 - 0.0
30/04:00am 7.1 3.2 1.4 67 2.3 SE 11 11 6 6 1023.7 - 0.0
30/03:30am 7.5 3.6 1.3 65 2.5 SE 11 11 6 6 1023.8 - 0.0
30/03:00am 7.3 3.0 1.1 65 2.5 ESE 13 13 7 7 1024.0 1024.0 0.0
30/02:30am 7.4 3.1 1.2 65 2.5 SE 13 17 7 9 1024.3 - 0.0
30/02:00am 7.2 3.8 1.8 68 2.2 SE 9 11 5 6 1024.7 - 0.0
30/01:30am 8.6 5.2 1.6 61 2.9 ESE 9 9 5 5 1025.0 - 0.0
30/01:00am 8.4 4.9 1.3 61 2.9 ESE 9 11 5 6 1025.2 - 0.0
30/12:30am 9.6 6.5 1.4 56 3.4 E 7 7 4 4 1025.4 - 0.0
30/12:00am 9.3 5.8 1.0 56 3.4 NE 9 9 5 5 1025.6 1025.6 0.0
 
Date/Time
CST
Temp
°C
App
Temp
°C
Dew
Point
Rel
Hum
%
Delta-T
°C
Wind Press
QNH
hPa
Press
MSL
hPa
Rain
since 9 am
mm
Dir
 
Spd
km/h
Gust
km/h
Spd
kts
Gust
kts
29/11:30pm 8.7 4.8 1.1 59 3.1 ENE 11 13 6 7 1025.7 - 0.0
29/11:00pm 8.6 4.7 1.3 60 3.0 NE 11 13 6 7 1025.7 - 0.0
29/10:30pm 9.4 5.9 1.4 57 3.3 NNE 9 9 5 5 1025.7 - 0.0
29/10:00pm 8.9 5.0 1.1 58 3.2 NE 11 13 6 7 1025.8 - 0.0
29/09:30pm 9.6 5.3 0.8 54 3.6 NE 13 13 7 7 1025.8 - 0.0
29/09:00pm 10.5 6.5 0.8 51 4.0 NE 11 11 6 6 1025.7 1025.7 0.0
29/08:30pm 11.9 8.3 0.3 45 4.8 E 9 13 5 7 1025.5 - 0.0
29/08:00pm 12.3 8.7 0.3 43 5.0 ENE 9 9 5 5 1025.2 - 0.0
29/07:30pm 12.6 9.0 0.7 44 5.0 ENE 9 11 5 6 1025.0 - 0.0
29/07:00pm 12.9 8.9 0.2 41 5.3 ESE 11 13 6 7 1024.7 - 0.0
29/06:30pm 13.8 10.1 -0.1 38 5.8 ESE 9 11 5 6 1024.6 - 0.0
29/06:00pm 14.8 9.5 -0.8 34 6.5 ESE 17 20 9 11 1024.4 1024.4 0.0
29/05:30pm 15.6 11.3 -1.3 31 7.0 ESE 11 19 6 10 1024.2 - 0.0
29/05:00pm 15.6 12.4 -0.2 34 6.7 SE 6 9 3 5 1024.1 - 0.0
29/04:30pm 15.7 11.9 -0.7 32 6.9 SE 9 15 5 8 1024.1 - 0.0
29/04:00pm 15.8 11.3 -0.5 33 6.9 ESE 13 19 7 10 1024.1 - 0.0
29/03:30pm 16.0 10.7 -0.9 31 7.1 SE 17 24 9 13 1024.2 - 0.0
29/03:00pm 16.0 11.9 -0.5 32 7.0 ESE 11 17 6 9 1024.3 1024.3 0.0
29/02:30pm 16.1 12.6 -1.1 31 7.2 ENE 7 13 4 7 1024.5 - 0.0
29/02:00pm 15.7 11.9 -1.1 31 7.0 E 9 20 5 11 1024.7 - 0.0
29/01:30pm 16.0 12.8 -0.6 32 7.0 ESE 6 13 3 7 1025.0 - 0.0
29/01:00pm 16.3 11.3 -1.5 29 7.4 E 15 19 8 10 1025.4 - 0.0
29/12:30pm 15.5 10.6 -0.7 33 6.8 ESE 15 22 8 12 1025.9 - 0.0
29/12:00pm 16.6 13.2 1.8 37 6.6 ENE 9 17 5 9 1026.3 1026.3 0.0
29/11:30am 15.0 11.0 3.1 45 5.4 E 13 20 7 11 1026.8 - 0.0
29/11:00am 14.1 9.8 3.5 49 4.8 ENE 15 20 8 11 1027.1 - 0.0
29/10:30am 13.8 9.0 4.5 53 4.3 E 19 24 10 13 1027.3 - 0.0
29/10:00am 13.5 8.7 4.6 55 4.1 E 19 28 10 15 1027.4 - 0.0
29/09:30am 12.8 7.8 4.8 58 3.7 ESE 20 24 11 13 1027.3 - 0.0
29/09:00am 12.2 7.5 5.0 61 3.3 ESE 19 22 10 12 1027.3 1027.3 0.0
29/08:30am 11.8 7.2 5.6 66 2.9 ESE 19 22 10 12 1027.0 - 0.0
29/08:00am 11.5 7.3 5.5 66 2.8 E 17 20 9 11 1026.7 - 0.0
29/07:30am 11.2 7.0 5.8 69 2.5 ESE 17 20 9 11 1026.2 - 0.0
29/07:00am 10.9 7.1 6.0 72 2.3 ESE 15 17 8 9 1025.9 - 0.0
29/06:30am 11.0 6.4 5.8 70 2.4 ESE 19 24 10 13 1025.6 - 0.0
29/06:00am 10.9 7.5 5.7 70 2.4 ESE 13 17 7 9 1025.4 1025.4 0.0
29/05:30am 10.9 7.8 5.7 70 2.4 ESE 11 15 6 8 1025.2 - 0.0
29/05:00am 10.9 7.5 5.7 70 2.4 SE 13 17 7 9 1025.2 - 0.0
29/04:30am 10.9 7.5 5.7 70 2.4 SE 13 15 7 8 1025.2 - 0.0
29/04:00am 10.9 7.8 5.7 70 2.4 SSE 11 13 6 7 1025.2 - 0.0
29/03:30am 11.4 7.9 5.6 67 2.7 SE 13 17 7 9 1025.2 - 0.0
29/03:00am 11.6 7.3 5.3 65 2.9 SE 17 20 9 11 1025.3 1025.3 0.0
29/02:30am 11.7 7.4 5.2 64 3.0 SE 17 20 9 11 1025.5 - 0.0
29/02:00am 11.9 7.6 5.4 64 3.0 SE 17 20 9 11 1025.8 - 0.0
29/01:30am 12.2 7.9 5.3 62 3.2 SE 17 20 9 11 1026.0 - 0.0
29/01:00am 12.4 8.1 5.3 62 3.3 SE 17 20 9 11 1026.3 - 0.0
29/12:30am 12.5 8.6 5.2 61 3.4 SE 15 20 8 11 1026.4 - 0.0
29/12:00am 12.5 9.0 5.4 62 3.3 SE 13 17 7 9 1026.5 1026.5 0.0
 
Date/Time
CST
Temp
°C
App
Temp
°C
Dew
Point
Rel
Hum
%
Delta-T
°C
Wind Press
QNH
hPa
Press
MSL
hPa
Rain
since 9 am
mm
Dir
 
Spd
km/h
Gust
km/h
Spd
kts
Gust
kts
28/11:30pm 12.7 9.1 5.2 60 3.5 SE 13 17 7 9 1026.6 - 0.0
28/11:00pm 12.9 8.6 5.2 59 3.6 SE 17 20 9 11 1026.7 - 0.0
28/10:30pm 13.0 9.0 5.0 58 3.7 SE 15 17 8 9 1026.9 - 0.0
28/10:00pm 13.0 9.2 4.0 54 4.1 SE 13 15 7 8 1026.8 - 0.0
28/09:30pm 12.7 9.2 3.3 52 4.2 SE 11 13 6 7 1026.7 - 0.0
28/09:00pm 13.0 9.8 3.1 51 4.4 SE 9 11 5 6 1026.6 1026.6 0.0
28/08:30pm 13.0 10.1 2.8 50 4.5 SE 7 9 4 5 1026.4 - 0.0
28/08:00pm 12.7 9.4 2.7 50 4.4 SE 9 11 5 6 1026.0 - 0.0
28/07:30pm 13.1 9.8 2.4 48 4.7 SE 9 9 5 5 1025.8 - 0.0
28/07:00pm 13.7 10.2 1.4 43 5.3 SE 9 11 5 6 1025.4 - 0.0
28/06:30pm 14.4 9.7 0.9 40 5.8 SE 15 20 8 11 1025.2 - 0.0
28/06:00pm 14.7 9.5 0.1 37 6.2 SE 17 20 9 11 1024.7 1024.7 0.0
28/05:30pm 15.2 10.8 0.5 36 6.3 SSE 13 15 7 8 1024.5 - 0.0
28/05:00pm 15.7 11.6 0.0 34 6.7 S 11 15 6 8 1024.6 - 0.0
28/04:30pm 15.5 10.0 0.4 35 6.5 SE 19 24 10 13 1024.6 - 0.0
28/04:00pm 15.8 10.9 -0.2 33 6.8 SSE 15 20 8 11 1024.6 - 0.0
28/03:30pm 15.5 10.6 -0.3 34 6.7 SE 15 20 8 11 1024.8 - 0.0
28/03:00pm 16.4 11.7 0.8 34 6.8 E 15 20 8 11 1025.0 1025.0 0.0
28/02:30pm 17.0 12.2 0.1 32 7.4 SSE 15 22 8 12 1025.2 - 0.0

Other Formats:

Comma delimited format used in spreadsheet applications
http://www.bom.gov.au/fwo/IDS60801/IDS60801.94659.axf

JavaScript Object Notation format (JSON) in row-major order
http://www.bom.gov.au/fwo/IDS60801/IDS60801.94659.json